sensor_id;sensor_type;location;lat;lon;timestamp;pressure;altitude;pressure_sealevel;temperature;humidity
39301;BME280;25019;42.626;23.380;2024-03-07T00:02:19;94194.66;;;6.19;100.00
39301;BME280;25019;42.626;23.380;2024-03-07T00:04:45;94241.19;;;6.56;100.00
39301;BME280;25019;42.626;23.380;2024-03-07T00:07:10;94242.34;;;6.60;100.00
39301;BME280;25019;42.626;23.380;2024-03-07T00:09:36;94172.72;;;6.07;100.00
39301;BME280;25019;42.626;23.380;2024-03-07T00:12:03;94247.38;;;6.62;100.00
39301;BME280;25019;42.626;23.380;2024-03-07T00:14:31;94232.34;;;6.50;100.00
39301;BME280;25019;42.626;23.380;2024-03-07T00:16:57;94214.44;;;6.40;100.00
39301;BME280;25019;42.626;23.380;2024-03-07T00:19:24;94176.06;;;6.14;100.00
39301;BME280;25019;42.626;23.380;2024-03-07T00:21:58;94229.13;;;6.48;100.00
39301;BME280;25019;42.626;23.380;2024-03-07T00:24:24;94240.28;;;6.62;100.00
39301;BME280;25019;42.626;23.380;2024-03-07T00:26:52;94241.09;;;6.63;100.00
39301;BME280;25019;42.626;23.380;2024-03-07T00:29:19;94241.97;;;6.56;100.00
39301;BME280;25019;42.626;23.380;2024-03-07T00:31:45;94230.50;;;6.51;100.00
39301;BME280;25019;42.626;23.380;2024-03-07T00:34:13;94232.81;;;6.59;100.00
39301;BME280;25019;42.626;23.380;2024-03-07T00:36:44;94147.78;;;5.91;100.00
39301;BME280;25019;42.626;23.380;2024-03-07T00:39:10;94237.63;;;6.50;100.00
39301;BME280;25019;42.626;23.380;2024-03-07T00:41:39;94225.53;;;6.42;100.00
39301;BME280;25019;42.626;23.380;2024-03-07T00:44:09;94195.94;;;6.28;100.00
39301;BME280;25019;42.626;23.380;2024-03-07T00:46:36;94140.00;;;5.96;100.00
39301;BME280;25019;42.626;23.380;2024-03-07T00:49:02;94229.94;;;6.49;100.00
39301;BME280;25019;42.626;23.380;2024-03-07T00:51:28;94179.16;;;6.11;100.00
39301;BME280;25019;42.626;23.380;2024-03-07T00:53:54;94145.25;;;5.84;100.00
39301;BME280;25019;42.626;23.380;2024-03-07T00:56:20;94233.34;;;6.37;100.00
39301;BME280;25019;42.626;23.380;2024-03-07T00:58:48;94209.69;;;6.30;100.00
39301;BME280;25019;42.626;23.380;2024-03-07T01:01:14;94163.06;;;6.00;100.00
39301;BME280;25019;42.626;23.380;2024-03-07T01:03:41;94218.44;;;6.43;100.00
39301;BME280;25019;42.626;23.380;2024-03-07T01:06:06;94199.28;;;6.36;100.00
39301;BME280;25019;42.626;23.380;2024-03-07T01:08:35;94185.28;;;6.23;100.00
39301;BME280;25019;42.626;23.380;2024-03-07T01:11:03;94123.13;;;5.85;100.00
39301;BME280;25019;42.626;23.380;2024-03-07T01:13:38;94185.28;;;6.23;100.00
39301;BME280;25019;42.626;23.380;2024-03-07T01:16:05;94161.84;;;6.15;100.00
39301;BME280;25019;42.626;23.380;2024-03-07T01:18:31;93996.97;;;4.92;100.00
39301;BME280;25019;42.626;23.380;2024-03-07T01:21:03;94171.81;;;6.01;100.00
39301;BME280;25019;42.626;23.380;2024-03-07T01:23:30;94155.47;;;5.92;100.00
39301;BME280;25019;42.626;23.380;2024-03-07T01:25:57;94203.16;;;6.21;100.00
39301;BME280;25019;42.626;23.380;2024-03-07T01:28:24;94199.34;;;6.17;100.00
39301;BME280;25019;42.626;23.380;2024-03-07T01:30:51;94185.16;;;5.99;100.00
39301;BME280;25019;42.626;23.380;2024-03-07T01:33:16;94069.44;;;5.25;100.00
39301;BME280;25019;42.626;23.380;2024-03-07T01:35:42;94142.81;;;5.70;100.00
39301;BME280;25019;42.626;23.380;2024-03-07T01:38:08;94156.31;;;5.74;100.00
39301;BME280;25019;42.626;23.380;2024-03-07T01:40:36;94173.44;;;5.83;100.00
39301;BME280;25019;42.626;23.380;2024-03-07T01:43:03;94158.16;;;5.74;100.00
39301;BME280;25019;42.626;23.380;2024-03-07T01:45:28;94159.44;;;5.83;100.00
39301;BME280;25019;42.626;23.380;2024-03-07T01:47:54;94170.25;;;5.93;100.00
39301;BME280;25019;42.626;23.380;2024-03-07T01:50:23;94181.53;;;6.00;100.00
39301;BME280;25019;42.626;23.380;2024-03-07T01:52:49;94166.81;;;5.93;100.00
39301;BME280;25019;42.626;23.380;2024-03-07T01:55:21;94178.69;;;6.02;100.00
39301;BME280;25019;42.626;23.380;2024-03-07T01:57:49;94188.44;;;6.13;100.00
39301;BME280;25019;42.626;23.380;2024-03-07T02:00:15;94040.66;;;5.12;100.00
39301;BME280;25019;42.626;23.380;2024-03-07T02:02:42;94159.00;;;5.86;100.00
39301;BME280;25019;42.626;23.380;2024-03-07T02:05:08;94179.41;;;5.91;100.00
39301;BME280;25019;42.626;23.380;2024-03-07T02:07:33;94110.97;;;5.42;100.00
39301;BME280;25019;42.626;23.380;2024-03-07T02:10:02;94181.00;;;5.92;100.00
39301;BME280;25019;42.626;23.380;2024-03-07T02:12:29;94180.22;;;5.91;100.00
39301;BME280;25019;42.626;23.380;2024-03-07T02:14:58;94119.22;;;5.45;100.00
39301;BME280;25019;42.626;23.380;2024-03-07T02:17:25;94130.63;;;5.39;100.00
39301;BME280;25019;42.626;23.380;2024-03-07T02:19:51;94198.19;;;5.82;100.00
39301;BME280;25019;42.626;23.380;2024-03-07T02:22:20;94174.69;;;5.50;100.00
39301;BME280;25019;42.626;23.380;2024-03-07T02:24:46;94192.50;;;5.67;100.00
39301;BME280;25019;42.626;23.380;2024-03-07T02:27:13;94142.88;;;5.33;100.00
39301;BME280;25019;42.626;23.380;2024-03-07T02:29:40;94009.03;;;4.32;100.00
39301;BME280;25019;42.626;23.380;2024-03-07T02:32:07;94170.06;;;5.27;100.00
39301;BME280;25019;42.626;23.380;2024-03-07T02:34:32;94088.28;;;4.73;100.00
39301;BME280;25019;42.626;23.380;2024-03-07T02:36:58;94166.84;;;5.25;100.00
39301;BME280;25019;42.626;23.380;2024-03-07T02:39:24;94139.53;;;5.07;100.00
39301;BME280;25019;42.626;23.380;2024-03-07T02:41:53;94130.03;;;5.06;100.00
39301;BME280;25019;42.626;23.380;2024-03-07T02:44:18;94180.75;;;5.32;100.00
39301;BME280;25019;42.626;23.380;2024-03-07T02:46:45;94182.13;;;5.35;100.00
39301;BME280;25019;42.626;23.380;2024-03-07T02:49:13;94180.41;;;5.29;100.00
39301;BME280;25019;42.626;23.380;2024-03-07T02:51:40;94127.41;;;4.88;100.00
39301;BME280;25019;42.626;23.380;2024-03-07T02:54:08;94158.97;;;5.06;100.00
39301;BME280;25019;42.626;23.380;2024-03-07T02:56:33;94147.34;;;4.95;100.00
39301;BME280;25019;42.626;23.380;2024-03-07T02:58:59;94196.22;;;5.29;100.00
39301;BME280;25019;42.626;23.380;2024-03-07T03:01:25;94187.06;;;5.13;100.00
39301;BME280;25019;42.626;23.380;2024-03-07T03:03:51;94144.84;;;4.82;100.00
39301;BME280;25019;42.626;23.380;2024-03-07T03:06:16;94193.19;;;5.06;100.00
39301;BME280;25019;42.626;23.380;2024-03-07T03:08:48;94178.94;;;4.95;100.00
39301;BME280;25019;42.626;23.380;2024-03-07T03:11:14;94169.28;;;4.89;100.00
39301;BME280;25019;42.626;23.380;2024-03-07T03:13:41;94201.09;;;5.06;100.00
39301;BME280;25019;42.626;23.380;2024-03-07T03:16:06;94170.13;;;4.83;100.00
39301;BME280;25019;42.626;23.380;2024-03-07T03:18:33;94181.19;;;4.92;100.00
39301;BME280;25019;42.626;23.380;2024-03-07T03:21:02;94056.56;;;4.05;100.00
39301;BME280;25019;42.626;23.380;2024-03-07T03:23:29;94150.88;;;4.64;100.00
39301;BME280;25019;42.626;23.380;2024-03-07T03:25:56;94210.72;;;4.94;100.00
39301;BME280;25019;42.626;23.380;2024-03-07T03:28:22;94192.28;;;4.75;100.00
39301;BME280;25019;42.626;23.380;2024-03-07T03:30:49;94206.03;;;4.77;100.00
39301;BME280;25019;42.626;23.380;2024-03-07T03:33:15;94209.59;;;4.83;100.00
39301;BME280;25019;42.626;23.380;2024-03-07T03:35:41;94207.22;;;4.82;100.00
39301;BME280;25019;42.626;23.380;2024-03-07T03:38:07;94061.00;;;3.86;100.00
39301;BME280;25019;42.626;23.380;2024-03-07T03:40:34;94207.41;;;4.80;100.00
39301;BME280;25019;42.626;23.380;2024-03-07T03:43:00;94221.00;;;4.77;100.00
39301;BME280;25019;42.626;23.380;2024-03-07T03:45:26;94201.78;;;4.51;100.00
39301;BME280;25019;42.626;23.380;2024-03-07T03:47:53;94228.84;;;4.58;100.00
39301;BME280;25019;42.626;23.380;2024-03-07T03:50:18;94235.47;;;4.68;100.00
39301;BME280;25019;42.626;23.380;2024-03-07T03:52:44;94199.38;;;4.49;100.00
39301;BME280;25019;42.626;23.380;2024-03-07T03:55:10;94190.25;;;4.52;100.00
39301;BME280;25019;42.626;23.380;2024-03-07T03:57:41;94174.69;;;4.50;100.00
39301;BME280;25019;42.626;23.380;2024-03-07T04:00:09;94120.97;;;4.14;100.00
39301;BME280;25019;42.626;23.380;2024-03-07T04:02:41;94088.75;;;3.75;100.00
39301;BME280;25019;42.626;23.380;2024-03-07T04:05:09;94126.81;;;3.91;100.00
39301;BME280;25019;42.626;23.380;2024-03-07T04:07:36;94157.78;;;4.14;100.00
39301;BME280;25019;42.626;23.380;2024-03-07T04:10:02;94208.97;;;4.37;100.00
39301;BME280;25019;42.626;23.380;2024-03-07T04:12:38;94093.66;;;3.65;100.00
39301;BME280;25019;42.626;23.380;2024-03-07T04:15:06;94210.59;;;4.38;100.00
39301;BME280;25019;42.626;23.380;2024-03-07T04:17:36;94195.59;;;4.13;100.00
39301;BME280;25019;42.626;23.380;2024-03-07T04:20:03;94158.22;;;3.79;100.00
39301;BME280;25019;42.626;23.380;2024-03-07T04:22:32;94215.25;;;4.11;100.00
39301;BME280;25019;42.626;23.380;2024-03-07T04:24:59;94221.47;;;4.16;100.00
39301;BME280;25019;42.626;23.380;2024-03-07T04:27:24;94182.16;;;3.96;100.00
39301;BME280;25019;42.626;23.380;2024-03-07T04:29:51;94219.00;;;4.22;100.00
39301;BME280;25019;42.626;23.380;2024-03-07T04:32:17;94216.56;;;4.20;100.00
39301;BME280;25019;42.626;23.380;2024-03-07T04:34:44;94132.41;;;3.69;100.00
39301;BME280;25019;42.626;23.380;2024-03-07T04:37:09;94214.59;;;4.15;100.00
39301;BME280;25019;42.626;23.380;2024-03-07T04:39:35;94148.59;;;3.66;100.00
39301;BME280;25019;42.626;23.380;2024-03-07T04:42:02;94217.28;;;4.09;100.00
39301;BME280;25019;42.626;23.380;2024-03-07T04:44:29;94132.94;;;3.53;100.00
39301;BME280;25019;42.626;23.380;2024-03-07T04:46:55;94224.31;;;4.15;100.00
39301;BME280;25019;42.626;23.380;2024-03-07T04:49:23;94154.31;;;3.56;100.00
39301;BME280;25019;42.626;23.380;2024-03-07T04:51:53;94180.53;;;3.63;100.00
39301;BME280;25019;42.626;23.380;2024-03-07T04:54:19;94225.63;;;3.99;100.00
39301;BME280;25019;42.626;23.380;2024-03-07T04:56:46;94227.38;;;4.05;100.00
39301;BME280;25019;42.626;23.380;2024-03-07T04:59:17;94204.63;;;3.92;100.00
39301;BME280;25019;42.626;23.380;2024-03-07T05:01:44;94161.16;;;3.57;100.00
39301;BME280;25019;42.626;23.380;2024-03-07T05:04:11;94192.22;;;3.74;100.00
39301;BME280;25019;42.626;23.380;2024-03-07T05:06:38;94243.16;;;4.05;100.00
39301;BME280;25019;42.626;23.380;2024-03-07T05:09:04;94238.53;;;4.00;100.00
39301;BME280;25019;42.626;23.380;2024-03-07T05:11:32;94233.09;;;3.95;100.00
39301;BME280;25019;42.626;23.380;2024-03-07T05:13:58;94174.25;;;3.64;100.00
39301;BME280;25019;42.626;23.380;2024-03-07T05:16:29;94239.72;;;4.04;100.00
39301;BME280;25019;42.626;23.380;2024-03-07T05:18:55;94178.91;;;3.69;100.00
39301;BME280;25019;42.626;23.380;2024-03-07T05:21:25;94219.38;;;3.93;100.00
39301;BME280;25019;42.626;23.380;2024-03-07T05:24:09;94238.66;;;4.12;100.00
39301;BME280;25019;42.626;23.380;2024-03-07T05:26:35;94154.91;;;3.58;100.00
39301;BME280;25019;42.626;23.380;2024-03-07T05:29:09;94233.34;;;4.19;100.00
39301;BME280;25019;42.626;23.380;2024-03-07T05:31:37;94229.53;;;4.22;100.00
39301;BME280;25019;42.626;23.380;2024-03-07T05:34:06;94238.38;;;4.27;100.00
39301;BME280;25019;42.626;23.380;2024-03-07T05:36:37;94232.94;;;4.22;100.00
39301;BME280;25019;42.626;23.380;2024-03-07T05:39:13;94241.41;;;4.24;100.00
39301;BME280;25019;42.626;23.380;2024-03-07T05:41:39;94165.50;;;3.77;100.00
39301;BME280;25019;42.626;23.380;2024-03-07T05:44:06;94203.13;;;4.10;100.00
39301;BME280;25019;42.626;23.380;2024-03-07T05:46:38;94256.66;;;4.47;100.00
39301;BME280;25019;42.626;23.380;2024-03-07T05:49:09;94165.44;;;3.90;100.00
39301;BME280;25019;42.626;23.380;2024-03-07T05:51:35;94198.88;;;4.09;100.00
39301;BME280;25019;42.626;23.380;2024-03-07T05:54:01;94156.59;;;3.85;100.00
39301;BME280;25019;42.626;23.380;2024-03-07T05:56:35;94249.53;;;4.48;100.00
39301;BME280;25019;42.626;23.380;2024-03-07T05:59:05;94145.91;;;3.80;100.00
39301;BME280;25019;42.626;23.380;2024-03-07T06:01:36;94171.19;;;4.06;100.00
39301;BME280;25019;42.626;23.380;2024-03-07T06:04:03;94267.63;;;4.70;100.00
39301;BME280;25019;42.626;23.380;2024-03-07T06:06:34;94156.00;;;4.08;100.00
39301;BME280;25019;42.626;23.380;2024-03-07T06:09:03;94173.72;;;4.19;100.00
39301;BME280;25019;42.626;23.380;2024-03-07T06:11:38;94256.13;;;4.89;100.00
39301;BME280;25019;42.626;23.380;2024-03-07T06:14:05;94266.75;;;5.01;100.00
39301;BME280;25019;42.626;23.380;2024-03-07T06:16:35;94185.47;;;4.42;100.00
39301;BME280;25019;42.626;23.380;2024-03-07T06:19:03;94139.38;;;4.14;100.00
39301;BME280;25019;42.626;23.380;2024-03-07T06:21:29;94194.22;;;4.61;100.00
39301;BME280;25019;42.626;23.380;2024-03-07T06:23:59;94272.53;;;5.10;100.00
39301;BME280;25019;42.626;23.380;2024-03-07T06:26:29;94222.84;;;4.76;100.00
39301;BME280;25019;42.626;23.380;2024-03-07T06:29:10;94285.50;;;5.12;100.00
39301;BME280;25019;42.626;23.380;2024-03-07T06:31:40;94296.31;;;5.22;100.00
39301;BME280;25019;42.626;23.380;2024-03-07T06:34:08;94285.63;;;5.17;100.00
39301;BME280;25019;42.626;23.380;2024-03-07T06:36:35;94257.94;;;4.89;100.00
39301;BME280;25019;42.626;23.380;2024-03-07T06:39:02;94220.53;;;4.61;100.00
39301;BME280;25019;42.626;23.380;2024-03-07T06:41:34;94227.56;;;4.68;100.00
39301;BME280;25019;42.626;23.380;2024-03-07T06:44:01;94242.44;;;4.80;100.00
39301;BME280;25019;42.626;23.380;2024-03-07T06:46:27;94178.25;;;4.38;100.00
39301;BME280;25019;42.626;23.380;2024-03-07T06:48:52;94238.09;;;4.68;100.00
39301;BME280;25019;42.626;23.380;2024-03-07T06:51:19;94235.63;;;4.73;100.00
39301;BME280;25019;42.626;23.380;2024-03-07T06:53:45;94288.22;;;5.23;100.00
39301;BME280;25019;42.626;23.380;2024-03-07T06:56:13;94220.56;;;4.80;100.00
39301;BME280;25019;42.626;23.380;2024-03-07T06:58:39;94251.91;;;5.07;100.00
39301;BME280;25019;42.626;23.380;2024-03-07T07:01:05;94222.66;;;4.97;100.00
39301;BME280;25019;42.626;23.380;2024-03-07T07:03:38;94198.22;;;4.64;100.00
39301;BME280;25019;42.626;23.380;2024-03-07T07:06:04;94235.13;;;4.83;100.00
39301;BME280;25019;42.626;23.380;2024-03-07T07:08:33;94278.66;;;5.04;100.00
39301;BME280;25019;42.626;23.380;2024-03-07T07:10:59;94216.88;;;4.88;100.00
39301;BME280;25019;42.626;23.380;2024-03-07T07:13:25;94285.16;;;5.45;100.00
39301;BME280;25019;42.626;23.380;2024-03-07T07:15:51;94222.97;;;5.25;100.00
39301;BME280;25019;42.626;23.380;2024-03-07T07:18:17;94188.00;;;5.18;100.00
39301;BME280;25019;42.626;23.380;2024-03-07T07:20:43;94259.03;;;5.62;100.00
39301;BME280;25019;42.626;23.380;2024-03-07T07:23:09;94201.38;;;5.35;100.00
39301;BME280;25019;42.626;23.380;2024-03-07T07:25:35;94153.78;;;5.18;100.00
39301;BME280;25019;42.626;23.380;2024-03-07T07:28:01;94181.63;;;5.26;100.00
39301;BME280;25019;42.626;23.380;2024-03-07T07:30:30;94181.72;;;5.19;100.00
39301;BME280;25019;42.626;23.380;2024-03-07T07:32:56;94190.16;;;5.59;100.00
39301;BME280;25019;42.626;23.380;2024-03-07T07:35:22;94265.44;;;6.22;100.00
39301;BME280;25019;42.626;23.380;2024-03-07T07:37:50;94224.06;;;5.85;100.00
39301;BME280;25019;42.626;23.380;2024-03-07T07:40:22;94167.75;;;5.68;100.00
39301;BME280;25019;42.626;23.380;2024-03-07T07:42:50;94267.84;;;6.36;100.00
39301;BME280;25019;42.626;23.380;2024-03-07T07:45:18;94167.03;;;5.61;100.00
39301;BME280;25019;42.626;23.380;2024-03-07T07:47:49;94139.31;;;5.58;100.00
39301;BME280;25019;42.626;23.380;2024-03-07T07:50:16;94180.88;;;5.87;100.00
39301;BME280;25019;42.626;23.380;2024-03-07T07:52:52;94228.38;;;6.17;100.00
39301;BME280;25019;42.626;23.380;2024-03-07T07:55:27;94253.66;;;6.37;100.00
39301;BME280;25019;42.626;23.380;2024-03-07T07:57:58;94246.38;;;6.20;100.00
39301;BME280;25019;42.626;23.380;2024-03-07T08:00:25;94146.53;;;5.63;100.00
39301;BME280;25019;42.626;23.380;2024-03-07T08:02:52;94255.06;;;6.51;100.00
39301;BME280;25019;42.626;23.380;2024-03-07T08:05:19;94183.16;;;6.13;100.00
39301;BME280;25019;42.626;23.380;2024-03-07T08:07:51;94157.00;;;6.00;100.00
39301;BME280;25019;42.626;23.380;2024-03-07T08:10:20;94208.69;;;6.43;100.00
39301;BME280;25019;42.626;23.380;2024-03-07T08:12:46;94202.72;;;6.36;100.00
39301;BME280;25019;42.626;23.380;2024-03-07T08:15:13;94175.41;;;6.30;100.00
39301;BME280;25019;42.626;23.380;2024-03-07T08:17:46;94249.44;;;6.59;100.00
39301;BME280;25019;42.626;23.380;2024-03-07T08:20:14;94291.47;;;6.73;100.00
39301;BME280;25019;42.626;23.380;2024-03-07T08:22:42;94184.09;;;6.07;100.00
39301;BME280;25019;42.626;23.380;2024-03-07T08:25:14;94249.09;;;6.56;100.00
39301;BME280;25019;42.626;23.380;2024-03-07T08:27:45;94146.84;;;5.85;100.00
39301;BME280;25019;42.626;23.380;2024-03-07T08:30:12;94130.59;;;5.88;100.00
39301;BME280;25019;42.626;23.380;2024-03-07T08:32:59;94268.09;;;6.88;100.00
39301;BME280;25019;42.626;23.380;2024-03-07T08:35:28;94188.59;;;6.30;100.00
39301;BME280;25019;42.626;23.380;2024-03-07T08:37:55;94177.28;;;6.42;100.00
39301;BME280;25019;42.626;23.380;2024-03-07T08:40:28;94221.81;;;6.74;100.00
39301;BME280;25019;42.626;23.380;2024-03-07T08:42:58;94233.75;;;6.65;100.00
39301;BME280;25019;42.626;23.380;2024-03-07T08:45:25;94159.34;;;6.08;100.00
39301;BME280;25019;42.626;23.380;2024-03-07T08:47:53;94320.25;;;7.29;100.00
39301;BME280;25019;42.626;23.380;2024-03-07T08:50:23;94297.72;;;7.14;100.00
39301;BME280;25019;42.626;23.380;2024-03-07T08:52:50;94300.03;;;7.11;100.00
39301;BME280;25019;42.626;23.380;2024-03-07T08:55:19;94265.91;;;6.97;100.00
39301;BME280;25019;42.626;23.380;2024-03-07T08:57:46;94342.31;;;7.34;100.00
39301;BME280;25019;42.626;23.380;2024-03-07T09:00:15;94126.66;;;6.09;100.00
39301;BME280;25019;42.626;23.380;2024-03-07T09:02:52;94219.06;;;6.69;100.00
39301;BME280;25019;42.626;23.380;2024-03-07T09:05:18;94268.34;;;7.11;100.00
39301;BME280;25019;42.626;23.380;2024-03-07T09:07:45;94203.22;;;6.69;100.00
39301;BME280;25019;42.626;23.380;2024-03-07T09:10:13;94075.59;;;5.92;100.00
39301;BME280;25019;42.626;23.380;2024-03-07T09:12:40;94331.84;;;7.52;100.00
39301;BME280;25019;42.626;23.380;2024-03-07T09:15:06;94224.69;;;6.84;100.00
39301;BME280;25019;42.626;23.380;2024-03-07T09:17:32;94256.38;;;6.84;100.00
39301;BME280;25019;42.626;23.380;2024-03-07T09:19:58;94299.44;;;7.09;100.00
39301;BME280;25019;42.626;23.380;2024-03-07T09:22:24;94236.41;;;6.77;100.00
39301;BME280;25019;42.626;23.380;2024-03-07T09:24:50;94230.53;;;6.74;100.00
39301;BME280;25019;42.626;23.380;2024-03-07T09:27:17;94264.22;;;7.03;100.00
39301;BME280;25019;42.626;23.380;2024-03-07T09:29:45;94296.47;;;7.29;100.00
39301;BME280;25019;42.626;23.380;2024-03-07T09:32:13;94224.72;;;6.96;100.00
39301;BME280;25019;42.626;23.380;2024-03-07T09:34:39;94090.78;;;6.20;100.00
39301;BME280;25019;42.626;23.380;2024-03-07T09:37:05;94153.41;;;6.72;100.00
39301;BME280;25019;42.626;23.380;2024-03-07T09:39:34;94202.31;;;6.75;100.00
39301;BME280;25019;42.626;23.380;2024-03-07T09:42:08;94214.81;;;6.92;100.00
39301;BME280;25019;42.626;23.380;2024-03-07T09:44:38;94278.22;;;7.51;100.00
39301;BME280;25019;42.626;23.380;2024-03-07T09:47:07;94264.03;;;7.69;100.00
39301;BME280;25019;42.626;23.380;2024-03-07T09:49:33;94150.84;;;7.25;100.00
39301;BME280;25019;42.626;23.380;2024-03-07T09:52:04;94243.72;;;7.58;100.00
39301;BME280;25019;42.626;23.380;2024-03-07T09:54:37;94153.88;;;7.05;100.00
39301;BME280;25019;42.626;23.380;2024-03-07T09:57:05;94252.09;;;7.67;100.00
39301;BME280;25019;42.626;23.380;2024-03-07T09:59:36;94128.13;;;7.12;100.00
39301;BME280;25019;42.626;23.380;2024-03-07T10:02:06;94292.06;;;8.52;100.00
39301;BME280;25019;42.626;23.380;2024-03-07T10:04:43;94161.47;;;7.42;100.00
39301;BME280;25019;42.626;23.380;2024-03-07T10:07:16;94302.47;;;8.01;100.00
39301;BME280;25019;42.626;23.380;2024-03-07T10:09:42;94327.94;;;8.31;100.00
39301;BME280;25019;42.626;23.380;2024-03-07T10:12:09;94253.31;;;8.17;100.00
39301;BME280;25019;42.626;23.380;2024-03-07T10:14:50;94242.91;;;7.98;100.00
39301;BME280;25019;42.626;23.380;2024-03-07T10:17:17;94257.75;;;8.28;100.00
39301;BME280;25019;42.626;23.380;2024-03-07T10:19:49;94248.19;;;8.56;100.00
39301;BME280;25019;42.626;23.380;2024-03-07T10:22:16;94237.53;;;8.51;100.00
39301;BME280;25019;42.626;23.380;2024-03-07T10:24:51;94233.59;;;8.53;100.00
39301;BME280;25019;42.626;23.380;2024-03-07T10:27:20;94317.41;;;8.94;100.00
39301;BME280;25019;42.626;23.380;2024-03-07T10:29:51;94205.97;;;7.74;100.00
39301;BME280;25019;42.626;23.380;2024-03-07T10:32:22;94269.09;;;8.12;100.00
39301;BME280;25019;42.626;23.380;2024-03-07T10:34:51;94235.28;;;8.14;100.00
39301;BME280;25019;42.626;23.380;2024-03-07T10:37:17;94303.50;;;8.69;100.00
39301;BME280;25019;42.626;23.380;2024-03-07T10:39:48;94228.69;;;8.16;100.00
39301;BME280;25019;42.626;23.380;2024-03-07T10:42:18;94212.03;;;8.16;100.00
39301;BME280;25019;42.626;23.380;2024-03-07T10:44:46;94228.53;;;8.06;100.00
39301;BME280;25019;42.626;23.380;2024-03-07T10:47:19;94072.44;;;7.14;100.00
39301;BME280;25019;42.626;23.380;2024-03-07T10:52:43;94194.47;;;7.80;100.00
39301;BME280;25019;42.626;23.380;2024-03-07T10:55:23;94303.06;;;8.32;100.00
39301;BME280;25019;42.626;23.380;2024-03-07T10:58:24;94296.28;;;8.24;100.00
39301;BME280;25019;42.626;23.380;2024-03-07T11:00:56;94294.16;;;8.09;100.00
39301;BME280;25019;42.626;23.380;2024-03-07T11:03:24;94295.41;;;8.18;100.00
39301;BME280;25019;42.626;23.380;2024-03-07T11:05:50;94144.53;;;7.14;100.00
39301;BME280;25019;42.626;23.380;2024-03-07T11:08:17;94244.34;;;7.89;100.00
39301;BME280;25019;42.626;23.380;2024-03-07T11:10:44;94218.22;;;7.52;100.00
39301;BME280;25019;42.626;23.380;2024-03-07T11:13:13;94266.00;;;7.62;100.00
39301;BME280;25019;42.626;23.380;2024-03-07T11:15:44;94174.28;;;7.10;100.00
39301;BME280;25019;42.626;23.380;2024-03-07T11:18:11;94207.81;;;7.21;100.00
39301;BME280;25019;42.626;23.380;2024-03-07T11:20:40;94086.09;;;6.22;100.00
39301;BME280;25019;42.626;23.380;2024-03-07T11:26:02;94180.75;;;6.90;100.00
39301;BME280;25019;42.626;23.380;2024-03-07T11:28:40;94287.00;;;7.80;100.00
39301;BME280;25019;42.626;23.380;2024-03-07T11:31:25;94137.13;;;6.75;100.00
39301;BME280;25019;42.626;23.380;2024-03-07T11:34:16;94281.94;;;7.67;100.00
39301;BME280;25019;42.626;23.380;2024-03-07T11:36:48;94291.06;;;7.47;100.00
39301;BME280;25019;42.626;23.380;2024-03-07T11:39:40;94279.25;;;7.38;100.00
39301;BME280;25019;42.626;23.380;2024-03-07T11:42:27;94289.22;;;7.12;100.00
39301;BME280;25019;42.626;23.380;2024-03-07T11:44:54;94235.25;;;6.72;100.00
39301;BME280;25019;42.626;23.380;2024-03-07T11:47:24;94174.41;;;6.55;100.00
39301;BME280;25019;42.626;23.380;2024-03-07T11:49:53;94135.75;;;6.25;100.00
39301;BME280;25019;42.626;23.380;2024-03-07T11:52:19;94165.25;;;6.46;100.00
39301;BME280;25019;42.626;23.380;2024-03-07T11:54:45;94128.31;;;6.58;100.00
39301;BME280;25019;42.626;23.380;2024-03-07T11:57:12;94183.38;;;6.90;100.00
39301;BME280;25019;42.626;23.380;2024-03-07T11:59:43;94265.00;;;7.51;100.00
39301;BME280;25019;42.626;23.380;2024-03-07T12:02:12;94169.44;;;7.18;100.00
39301;BME280;25019;42.626;23.380;2024-03-07T12:04:41;94068.63;;;6.69;100.00
39301;BME280;25019;42.626;23.380;2024-03-07T12:07:07;94173.09;;;7.29;100.00
39301;BME280;25019;42.626;23.380;2024-03-07T12:09:37;94143.28;;;7.17;100.00
39301;BME280;25019;42.626;23.380;2024-03-07T12:12:06;94152.34;;;7.33;100.00
39301;BME280;25019;42.626;23.380;2024-03-07T12:14:32;94172.50;;;7.51;100.00
39301;BME280;25019;42.626;23.380;2024-03-07T12:17:01;94190.69;;;7.76;100.00
39301;BME280;25019;42.626;23.380;2024-03-07T12:19:28;94173.22;;;7.75;100.00
39301;BME280;25019;42.626;23.380;2024-03-07T12:21:59;94131.22;;;7.21;100.00
39301;BME280;25019;42.626;23.380;2024-03-07T12:24:25;94216.72;;;7.97;100.00
39301;BME280;25019;42.626;23.380;2024-03-07T12:26:51;94268.00;;;8.24;100.00
39301;BME280;25019;42.626;23.380;2024-03-07T12:29:17;94176.78;;;7.69;100.00
39301;BME280;25019;42.626;23.380;2024-03-07T12:31:42;94164.84;;;7.67;100.00
39301;BME280;25019;42.626;23.380;2024-03-07T12:34:08;94209.91;;;8.01;100.00
39301;BME280;25019;42.626;23.380;2024-03-07T12:36:37;94186.38;;;7.87;100.00
39301;BME280;25019;42.626;23.380;2024-03-07T12:39:25;94201.34;;;8.10;100.00
39301;BME280;25019;42.626;23.380;2024-03-07T12:41:52;94189.09;;;8.21;100.00
39301;BME280;25019;42.626;23.380;2024-03-07T12:44:21;94138.03;;;8.04;100.00
39301;BME280;25019;42.626;23.380;2024-03-07T12:46:48;94178.16;;;8.47;100.00
39301;BME280;25019;42.626;23.380;2024-03-07T12:49:14;94183.16;;;8.60;100.00
39301;BME280;25019;42.626;23.380;2024-03-07T12:51:43;94193.00;;;8.82;100.00
39301;BME280;25019;42.626;23.380;2024-03-07T12:54:09;94146.75;;;8.50;100.00
39301;BME280;25019;42.626;23.380;2024-03-07T12:56:38;94178.00;;;8.88;100.00
39301;BME280;25019;42.626;23.380;2024-03-07T12:59:05;94236.63;;;9.31;100.00
39301;BME280;25019;42.626;23.380;2024-03-07T13:01:37;94215.56;;;9.02;100.00
39301;BME280;25019;42.626;23.380;2024-03-07T13:04:06;94124.66;;;8.45;100.00